Time;durP1;ratioP1;P1;durP2;ratioP2;P2;SDS_P1;SDS_P2;PMS_P1;PMS_P2;Temp;Humidity;BMP_temperature;BMP_pressure;BME280_temperature;BME280_humidity;BME280_pressure;Samples;Min_cycle;Max_cycle;Signal;HPM_P1;HPM_P2
2021/03/24 06:42:28;;;;;;;15.63;8.93;;;1.20;70.90;;;;;;4865990;27;8376409;-64
2021/03/24 06:45:29;;;;;;;17.10;9.55;;;1.20;71.40;;;;;;5142190;27;27852;-63
2021/03/24 06:48:46;;;;;;;15.57;9.07;;;1.30;71.40;;;;;;5123864;27;27430;-62
2021/03/24 06:52:03;;;;;;;15.60;9.30;;;1.40;71.10;;;;;;5142607;27;27341;-62
2021/03/24 06:55:25;;;;;;;17.83;10.32;;;1.60;71.00;;;;;;5115646;27;27628;-61
2021/03/24 06:58:28;;;;;;;19.73;10.07;;;2.00;70.60;;;;;;5142170;27;27359;-62
2021/03/24 07:01:34;;;;;;;14.25;9.48;;;2.50;69.30;;;;;;5142176;27;27406;-62
2021/03/24 07:04:39;;;;;;;21.00;10.80;;;3.10;67.80;;;;;;5127164;27;27411;-63
2021/03/24 07:07:54;;;;;;;20.23;10.95;;;3.80;66.10;;;;;;5128495;27;27422;-63
2021/03/24 07:10:53;;;;;;;19.75;11.30;;;4.60;64.20;;;;;;5141809;27;27399;-63
2021/03/24 07:13:46;;;;;;;23.40;12.15;;;5.40;62.10;;;;;;5142012;27;27513;-65
2021/03/24 07:17:01;;;;;;;21.67;11.18;;;6.10;60.30;;;;;;5142378;27;27328;-65
2021/03/24 07:19:46;;;;;;;16.40;11.18;;;6.70;58.80;;;;;;5141861;27;27373;-66
2021/03/24 07:22:52;;;;;;;15.93;10.48;;;7.50;57.30;;;;;;5142106;27;27343;-65
2021/03/24 07:26:06;;;;;;;16.73;10.93;;;8.20;55.80;;;;;;5142099;27;27316;-63
2021/03/24 07:29:02;;;;;;;16.30;11.55;;;9.00;54.10;;;;;;5132843;27;27428;-63
2021/03/24 07:32:09;;;;;;;17.63;10.80;;;9.70;52.90;;;;;;5142132;27;27381;-62
2021/03/24 07:35:18;;;;;;;15.65;10.38;;;10.40;51.60;;;;;;5110260;27;27954;-63
2021/03/24 07:38:28;;;;;;;16.48;10.80;;;11.20;51.00;;;;;;5141713;27;27826;-62
2021/03/24 07:41:36;;;;;;;16.27;10.45;;;11.90;49.70;;;;;;5119497;27;27490;-62
2021/03/24 07:44:40;;;;;;;18.17;11.25;;;12.70;48.70;;;;;;5120359;27;27422;-62
2021/03/24 07:47:43;;;;;;;15.50;10.20;;;13.30;47.60;;;;;;5120800;27;27477;-62
2021/03/24 07:51:06;;;;;;;18.55;11.57;;;13.80;46.70;;;;;;5120709;27;27504;-61
2021/03/24 07:54:06;;;;;;;20.38;11.43;;;14.60;46.10;;;;;;5024511;28;27433;-62
2021/03/24 07:57:03;;;;;;;17.13;10.88;;;15.00;45.80;;;;;;5024708;28;27478;-61
2021/03/24 07:59:52;;;;;;;19.45;11.57;;;15.50;45.10;;;;;;5024501;28;27846;-62
2021/03/24 08:02:42;;;;;;;17.13;11.40;;;16.10;44.90;;;;;;4993891;28;27442;-61
2021/03/24 08:05:27;;;;;;;14.65;9.95;;;16.60;44.50;;;;;;5009074;28;27507;-62
2021/03/24 08:08:33;;;;;;;16.35;10.77;;;17.00;44.20;;;;;;5024639;28;27445;-62
2021/03/24 08:11:37;;;;;;;20.13;10.50;;;17.50;43.70;;;;;;4996605;28;27371;-62
2021/03/24 08:14:26;;;;;;;15.65;9.95;;;18.00;42.70;;;;;;5024714;28;27501;-62
2021/03/24 08:17:44;;;;;;;15.48;10.55;;;18.50;42.50;;;;;;5024142;28;27438;-62
2021/03/24 08:20:39;;;;;;;15.73;10.25;;;18.90;42.00;;;;;;5024283;28;27484;-62
2021/03/24 08:23:45;;;;;;;14.02;10.13;;;19.40;41.70;;;;;;5003758;28;27445;-61
2021/03/24 08:27:01;;;;;;;14.13;10.85;;;19.80;40.70;;;;;;5106428;28;27441;-61
2021/03/24 08:29:50;;;;;;;14.38;10.52;;;20.20;40.10;;;;;;5106123;28;27430;-62
2021/03/24 08:32:43;;;;;;;12.80;10.00;;;20.50;39.80;;;;;;5106142;28;27395;-61
2021/03/24 08:35:55;;;;;;;12.25;9.80;;;20.90;39.50;;;;;;5106569;28;27417;-62
2021/03/24 08:38:45;;;;;;;16.90;9.80;;;21.30;38.70;;;;;;5106511;28;27438;-61
2021/03/24 08:42:07;;;;;;;16.20;9.70;;;21.70;38.70;;;;;;5120194;27;27406;-61
2021/03/24 08:44:56;;;;;;;16.23;10.05;;;22.10;37.80;;;;;;5123509;27;27400;-61
2021/03/24 08:47:41;;;;;;;12.07;9.68;;;22.50;37.20;;;;;;5126719;27;27402;-62
2021/03/24 08:50:32;;;;;;;13.73;9.10;;;22.90;36.90;;;;;;5126911;27;27383;-62
2021/03/24 08:53:55;;;;;;;14.75;11.32;;;23.20;36.10;;;;;;5127092;27;27474;-62
2021/03/24 08:56:48;;;;;;;14.07;9.98;;;23.60;35.40;;;;;;5126609;27;27335;-61
2021/03/24 08:59:40;;;;;;;13.52;9.55;;;24.10;34.90;;;;;;5109334;27;27428;-62
2021/03/24 09:02:31;;;;;;;11.80;9.75;;;24.50;34.30;;;;;;5097298;27;27342;-61
2021/03/24 09:05:21;;;;;;;14.90;9.25;;;24.80;33.90;;;;;;5126305;27;27440;-62
2021/03/24 09:08:25;;;;;;;13.38;9.68;;;25.20;33.20;;;;;;5123468;27;27379;-61
2021/03/24 09:11:37;;;;;;;13.90;10.02;;;25.40;33.00;;;;;;5097760;27;27312;-62
2021/03/24 09:14:42;;;;;;;12.70;8.80;;;25.70;32.90;;;;;;5126604;27;27496;-61
2021/03/24 09:17:52;;;;;;;11.05;9.25;;;26.00;32.70;;;;;;5111034;27;27477;-72
2021/03/24 09:21:10;;;;;;;12.90;9.40;;;26.20;31.80;;;;;;5126011;27;27379;-76
2021/03/24 09:24:25;;;;;;;12.75;9.80;;;26.50;31.70;;;;;;5122837;27;27407;-62
2021/03/24 09:27:27;;;;;;;11.50;9.38;;;26.80;31.50;;;;;;5123119;27;27472;-62
2021/03/24 09:30:34;;;;;;;12.25;9.55;;;27.10;31.40;;;;;;5126286;27;27355;-62
2021/03/24 09:33:35;;;;;;;14.68;9.82;;;27.40;31.00;;;;;;5111025;27;27324;-62
2021/03/24 09:36:45;;;;;;;12.32;9.50;;;27.60;30.60;;;;;;5126237;27;27378;-61
2021/03/24 09:39:45;;;;;;;12.70;8.82;;;27.90;30.40;;;;;;5125924;27;27601;-62
2021/03/24 09:42:34;;;;;;;12.27;9.57;;;28.10;30.00;;;;;;5126208;27;27411;-64
2021/03/24 09:45:33;;;;;;;10.65;8.73;;;28.30;29.90;;;;;;5125827;27;27477;-62
2021/03/24 09:48:19;;;;;;;12.43;9.05;;;28.60;30.00;;;;;;5126225;27;27352;-64
2021/03/24 09:51:09;;;;;;;12.82;9.07;;;28.80;30.00;;;;;;5125819;27;27332;-64
2021/03/24 09:54:10;;;;;;;11.65;7.68;;;29.00;29.60;;;;;;5096477;27;27457;-62
2021/03/24 09:57:07;;;;;;;11.65;8.98;;;29.30;29.30;;;;;;5112048;27;27320;-64
2021/03/24 10:00:07;;;;;;;8.70;7.20;;;29.50;29.30;;;;;;5125865;27;27394;-64
2021/03/24 10:03:12;;;;;;;9.40;7.82;;;29.70;29.10;;;;;;5110728;27;27403;-62
2021/03/24 10:06:01;;;;;;;10.10;7.95;;;30.00;29.10;;;;;;5125633;27;27412;-63
2021/03/24 10:08:46;;;;;;;11.13;8.27;;;30.20;28.60;;;;;;5110212;27;27335;-62
2021/03/24 10:11:48;;;;;;;9.55;7.85;;;30.40;28.60;;;;;;5125127;27;28058;-63
2021/03/24 10:15:06;;;;;;;10.43;7.13;;;30.60;28.50;;;;;;5125058;27;27399;-63
2021/03/24 10:17:56;;;;;;;8.77;6.93;;;30.70;28.50;;;;;;5125382;27;27393;-62
2021/03/24 10:20:44;;;;;;;7.90;6.95;;;31.00;28.30;;;;;;5109829;27;27644;-64
2021/03/24 10:23:45;;;;;;;10.27;7.13;;;31.10;28.10;;;;;;5125561;27;27375;-62
2021/03/24 10:26:54;;;;;;;10.32;7.50;;;31.30;28.10;;;;;;5096935;27;27504;-63
2021/03/24 10:29:50;;;;;;;9.18;5.85;;;31.50;27.70;;;;;;5125111;27;27420;-63
2021/03/24 10:32:51;;;;;;;8.48;6.43;;;31.70;27.70;;;;;;5125160;27;27328;-63
2021/03/24 10:35:42;;;;;;;7.72;5.90;;;31.90;27.50;;;;;;5109661;27;27869;-63
2021/03/24 10:38:34;;;;;;;7.47;5.75;;;32.00;27.40;;;;;;5109995;27;27404;-63
2021/03/24 10:41:31;;;;;;;6.57;5.63;;;32.20;27.10;;;;;;5102999;28;26927;-63
2021/03/24 10:44:44;;;;;;;7.45;5.32;;;32.30;27.10;;;;;;5104685;28;27460;-63
2021/03/24 10:47:37;;;;;;;5.63;4.50;;;32.50;27.10;;;;;;5096753;27;27956;-61
2021/03/24 10:50:29;;;;;;;9.32;4.78;;;32.60;27.10;;;;;;5103411;28;27447;-60
2021/03/24 10:53:24;;;;;;;7.35;4.60;;;32.80;27.10;;;;;;5104683;28;27583;-60
2021/03/24 10:56:31;;;;;;;7.55;4.88;;;33.00;26.90;;;;;;5104297;28;27433;-60
2021/03/24 10:59:24;;;;;;;5.57;4.25;;;33.00;26.60;;;;;;5104187;28;27847;-61
2021/03/24 11:02:18;;;;;;;6.25;4.22;;;33.20;26.60;;;;;;5104162;28;27551;-60
2021/03/24 11:05:11;;;;;;;4.63;3.83;;;33.30;26.60;;;;;;5104455;28;27399;-60
2021/03/24 11:08:11;;;;;;;4.30;3.90;;;33.40;27.00;;;;;;5104391;28;27401;-62
2021/03/24 11:11:45;;;;;;;4.30;3.33;;;33.40;26.60;;;;;;5103395;28;27856;-61
2021/03/24 11:14:34;;;;;;;4.97;3.83;;;33.50;26.80;;;;;;5102253;28;27596;-62
2021/03/24 11:17:19;;;;;;;4.93;4.07;;;33.60;26.70;;;;;;5104419;28;27382;-62
2021/03/24 11:20:12;;;;;;;6.15;3.88;;;33.70;26.50;;;;;;5103591;28;27382;-61
2021/03/24 11:22:58;;;;;;;5.05;3.70;;;33.80;26.50;;;;;;5103890;28;27478;-69
2021/03/24 11:25:48;;;;;;;4.18;3.30;;;33.90;26.20;;;;;;5103423;27;27419;-61
2021/03/24 11:28:35;;;;;;;5.68;3.85;;;34.10;26.30;;;;;;5107295;28;27497;-62
2021/03/24 11:31:24;;;;;;;3.63;2.92;;;34.20;26.20;;;;;;5107091;28;27418;-61
2021/03/24 11:34:10;;;;;;;4.22;3.10;;;34.30;26.30;;;;;;5106530;28;27414;-62
2021/03/24 11:37:02;;;;;;;3.50;3.03;;;34.30;26.20;;;;;;5107581;28;27375;-62
2021/03/24 11:39:49;;;;;;;3.47;3.13;;;34.40;25.90;;;;;;5106622;28;27424;-63
2021/03/24 11:42:34;;;;;;;4.68;3.60;;;34.40;25.60;;;;;;5107038;28;27394;-72
2021/03/24 11:45:18;;;;;;;3.85;3.08;;;34.40;26.40;;;;;;5106543;28;27359;-68
2021/03/24 11:48:25;;;;;;;4.55;2.88;;;34.50;25.90;;;;;;5103679;28;27382;-62
2021/03/24 11:51:29;;;;;;;3.92;2.83;;;34.60;25.80;;;;;;5106173;28;27398;-62
2021/03/24 11:54:22;;;;;;;3.08;2.78;;;34.70;25.70;;;;;;5103047;28;27356;-62
2021/03/24 11:57:15;;;;;;;3.55;2.58;;;34.70;25.70;;;;;;5102941;28;27418;-62
2021/03/24 12:00:15;;;;;;;4.97;3.15;;;34.70;25.50;;;;;;5106633;28;27490;-62
2021/03/24 12:03:21;;;;;;;2.80;1.90;;;34.80;25.20;;;;;;5107065;28;27375;-63
2021/03/24 12:06:11;;;;;;;2.33;1.98;;;34.80;25.30;;;;;;5106861;28;27328;-68
2021/03/24 12:09:03;;;;;;;2.80;2.35;;;34.90;25.40;;;;;;5105610;28;27494;-63
2021/03/24 12:11:47;;;;;;;2.42;2.13;;;34.90;25.30;;;;;;5106159;28;27390;-62
2021/03/24 12:14:32;;;;;;;4.60;2.15;;;35.00;25.50;;;;;;5091711;28;27350;-62
2021/03/24 12:17:32;;;;;;;2.65;2.05;;;35.00;25.60;;;;;;5088294;28;27380;-63
2021/03/24 12:20:19;;;;;;;4.03;2.20;;;35.00;25.30;;;;;;5106243;28;27408;-63
2021/03/24 12:23:03;;;;;;;5.70;2.20;;;35.00;25.40;;;;;;5106464;28;27413;-61
2021/03/24 12:25:52;;;;;;;1.70;1.60;;;35.00;25.30;;;;;;5102277;28;27281;-62
2021/03/24 12:28:39;;;;;;;2.65;1.70;;;34.90;25.20;;;;;;5103395;28;27316;-62
2021/03/24 12:31:24;;;;;;;3.05;1.75;;;34.80;25.00;;;;;;5105251;28;27431;-62
2021/03/24 12:34:10;;;;;;;1.83;1.55;;;34.80;25.30;;;;;;5106458;28;27396;-63
2021/03/24 12:36:59;;;;;;;4.55;2.05;;;34.80;25.10;;;;;;5090943;28;27461;-62
2021/03/24 12:39:44;;;;;;;2.92;1.60;;;34.70;25.10;;;;;;5105341;28;27422;-62
2021/03/24 12:42:30;;;;;;;3.15;1.60;;;34.70;25.50;;;;;;5125843;27;27399;-61
2021/03/24 12:45:41;;;;;;;2.17;1.50;;;34.60;24.80;;;;;;5126846;27;27328;-62
2021/03/24 12:48:34;;;;;;;1.90;1.48;;;34.60;25.10;;;;;;5108167;27;27375;-62
2021/03/24 12:51:23;;;;;;;2.20;1.63;;;34.60;25.30;;;;;;5126339;27;27345;-62
2021/03/24 12:54:08;;;;;;;2.08;1.80;;;34.60;25.50;;;;;;5126526;27;27445;-62
2021/03/24 12:57:14;;;;;;;1.88;1.30;;;34.50;25.30;;;;;;5111473;27;27391;-62
2021/03/24 13:00:20;;;;;;;1.85;1.27;;;34.40;25.20;;;;;;5126714;27;27339;-62
2021/03/24 13:03:41;;;;;;;1.58;1.20;;;34.30;25.30;;;;;;5126233;27;27320;-62
2021/03/24 13:06:41;;;;;;;1.70;1.00;;;34.30;25.50;;;;;;5126487;27;27860;-68
2021/03/24 13:09:28;;;;;;;1.45;0.90;;;34.20;25.50;;;;;;5126640;27;27457;-62
2021/03/24 13:12:38;;;;;;;1.10;0.90;;;34.20;25.30;;;;;;5123328;27;27528;-67
2021/03/24 13:15:43;;;;;;;1.20;0.90;;;34.10;25.20;;;;;;5123157;27;27387;-62
2021/03/24 13:18:44;;;;;;;1.42;0.82;;;34.00;25.50;;;;;;5112641;27;27426;-62
2021/03/24 13:21:53;;;;;;;2.58;0.90;;;34.00;25.50;;;;;;5126401;27;27420;-62
2021/03/24 13:24:47;;;;;;;1.05;0.88;;;33.80;25.00;;;;;;5126443;27;27419;-62
2021/03/24 13:28:21;;;;;;;0.98;0.73;;;33.70;25.00;;;;;;5126043;27;27404;-62
2021/03/24 13:31:23;;;;;;;1.00;0.90;;;33.70;25.20;;;;;;5108985;27;27473;-62
2021/03/24 13:34:23;;;;;;;1.65;0.82;;;33.60;24.40;;;;;;5095472;27;27503;-62
2021/03/24 13:37:22;;;;;;;1.65;0.90;;;33.50;24.90;;;;;;5126398;27;27430;-62
2021/03/24 13:40:25;;;;;;;1.20;0.82;;;33.40;25.20;;;;;;5125692;27;27359;-69
2021/03/24 13:43:30;;;;;;;1.50;0.73;;;33.40;25.30;;;;;;5125938;27;27833;-62
2021/03/24 13:46:20;;;;;;;1.38;1.00;;;33.30;25.20;;;;;;5112309;27;27418;-69
2021/03/24 13:49:31;;;;;;;0.82;0.68;;;33.20;24.90;;;;;;5125485;27;27541;-62
2021/03/24 13:52:34;;;;;;;1.65;0.88;;;33.10;24.80;;;;;;5112567;27;27447;-62
2021/03/24 13:55:51;;;;;;;1.85;0.90;;;33.00;25.10;;;;;;5125565;27;27597;-63
2021/03/24 13:59:02;;;;;;;4.32;1.30;;;32.90;25.10;;;;;;5105848;27;27332;-61
2021/03/24 14:01:51;;;;;;;1.02;0.80;;;32.80;25.70;;;;;;5104951;28;27448;-61
2021/03/24 14:04:36;;;;;;;1.25;0.85;;;32.70;25.20;;;;;;5105165;28;27383;-67
2021/03/24 14:07:42;;;;;;;1.73;1.05;;;32.60;24.40;;;;;;5105188;28;27325;-67
2021/03/24 14:10:39;;;;;;;1.10;1.00;;;32.50;25.10;;;;;;5089867;28;27395;-67
2021/03/24 14:13:48;;;;;;;2.65;1.00;;;32.30;25.60;;;;;;5104873;28;27459;-60
2021/03/24 14:16:40;;;;;;;1.48;0.80;;;32.10;25.10;;;;;;5105084;28;27374;-61
2021/03/24 14:19:44;;;;;;;1.08;0.80;;;32.10;25.60;;;;;;5104834;28;27478;-60
2021/03/24 14:23:01;;;;;;;1.27;0.80;;;31.90;25.80;;;;;;5104495;28;27416;-61
2021/03/24 14:25:53;;;;;;;1.02;0.70;;;31.80;25.90;;;;;;5100515;28;27762;-61
2021/03/24 14:28:54;;;;;;;1.13;0.75;;;31.60;25.40;;;;;;5076484;28;27348;-61
2021/03/24 14:31:39;;;;;;;2.17;0.73;;;31.50;25.70;;;;;;5089778;28;27342;-61
2021/03/24 14:34:51;;;;;;;1.27;0.75;;;31.30;25.70;;;;;;5104471;28;27372;-61
2021/03/24 14:37:42;;;;;;;2.03;0.80;;;31.20;26.00;;;;;;5105017;28;27490;-63
2021/03/24 14:41:00;;;;;;;1.15;0.70;;;31.00;26.10;;;;;;5104138;28;27394;-66
2021/03/24 14:44:09;;;;;;;1.20;0.82;;;30.80;26.20;;;;;;5086164;28;27937;-66
2021/03/24 14:47:07;;;;;;;2.15;1.00;;;30.60;25.90;;;;;;5089501;28;27333;-61
2021/03/24 14:50:19;;;;;;;1.52;0.93;;;30.40;26.20;;;;;;5101235;28;27387;-61
2021/03/24 14:53:20;;;;;;;3.60;0.93;;;30.20;26.00;;;;;;5085964;28;26944;-64
2021/03/24 14:56:10;;;;;;;3.13;1.20;;;29.90;26.10;;;;;;5104129;28;27419;-61
2021/03/24 14:59:10;;;;;;;1.77;0.98;;;29.70;26.10;;;;;;5104234;28;27493;-63
2021/03/24 15:01:55;;;;;;;0.73;0.73;;;29.50;26.70;;;;;;5074367;28;27384;-63
2021/03/24 15:04:39;;;;;;;1.92;1.15;;;29.30;27.10;;;;;;5092860;28;27408;-64
2021/03/24 15:07:24;;;;;;;1.73;0.90;;;29.10;27.50;;;;;;5107691;28;27434;-60
2021/03/24 15:10:23;;;;;;;3.10;0.70;;;28.90;27.20;;;;;;5107481;28;27396;-60
2021/03/24 15:13:25;;;;;;;1.35;1.00;;;28.70;27.60;;;;;;5104581;28;27356;-60
2021/03/24 15:16:19;;;;;;;1.13;0.98;;;28.50;27.60;;;;;;5093064;28;27527;-60
2021/03/24 15:19:40;;;;;;;0.90;0.77;;;28.20;27.50;;;;;;5107456;28;28465;-66
2021/03/24 15:22:53;;;;;;;2.05;0.90;;;28.00;28.00;;;;;;5107367;28;27353;-63
2021/03/24 15:26:32;;;;;;;1.20;0.80;;;27.70;28.10;;;;;;5104480;28;27411;-76
2021/03/24 15:29:41;;;;;;;0.88;0.70;;;27.50;28.60;;;;;;5009585;28;27429;-75
2021/03/24 15:32:45;;;;;;;1.95;1.05;;;27.20;28.20;;;;;;5107625;28;27466;-62
2021/03/24 15:35:33;;;;;;;1.02;0.85;;;27.00;28.60;;;;;;5107670;28;27452;-61
2021/03/24 15:38:39;;;;;;;3.15;0.80;;;26.80;28.90;;;;;;5107620;28;27447;-66
2021/03/24 15:41:25;;;;;;;1.48;1.10;;;26.60;28.90;;;;;;5106852;28;27372;-62
2021/03/24 15:44:14;;;;;;;1.75;0.90;;;26.40;29.10;;;;;;5107079;28;27420;-77
2021/03/24 15:47:04;;;;;;;2.35;1.13;;;26.20;29.10;;;;;;5107064;28;27422;-61
2021/03/24 15:49:49;;;;;;;1.35;0.80;;;26.00;28.90;;;;;;5091997;28;27408;-63
2021/03/24 15:52:34;;;;;;;1.58;1.10;;;25.80;29.50;;;;;;5107314;28;27325;-62
2021/03/24 15:55:24;;;;;;;2.05;1.20;;;25.60;29.90;;;;;;5107596;28;27394;-61
2021/03/24 15:58:27;;;;;;;2.45;0.98;;;25.30;30.00;;;;;;5106900;28;27420;-62
2021/03/24 16:01:21;;;;;;;1.10;1.00;;;25.10;30.60;;;;;;5103978;28;27333;-62
2021/03/24 16:04:24;;;;;;;1.50;0.95;;;24.80;31.10;;;;;;5107062;28;27323;-68
2021/03/24 16:07:30;;;;;;;1.35;0.88;;;24.60;31.30;;;;;;5103861;28;27383;-60
2021/03/24 16:10:26;;;;;;;1.50;1.00;;;24.30;31.60;;;;;;5106602;28;27424;-60
2021/03/24 16:13:16;;;;;;;2.55;1.00;;;24.10;32.00;;;;;;5105756;28;27428;-69
2021/03/24 16:16:07;;;;;;;3.45;1.30;;;23.80;32.50;;;;;;5091500;28;27509;-61
2021/03/24 16:19:09;;;;;;;2.28;1.10;;;23.50;32.70;;;;;;5106629;28;27344;-61
2021/03/24 16:22:18;;;;;;;0.73;0.73;;;23.30;33.20;;;;;;5106748;28;27383;-61
2021/03/24 16:25:24;;;;;;;1.00;0.80;;;23.00;33.60;;;;;;5106847;28;27480;-61
2021/03/24 16:28:28;;;;;;;3.17;0.90;;;22.70;34.00;;;;;;5074021;28;27480;-61
2021/03/24 16:31:30;;;;;;;1.73;1.08;;;22.40;34.20;;;;;;5106175;28;27389;-61
2021/03/24 16:34:34;;;;;;;3.33;0.70;;;22.10;34.60;;;;;;5106669;28;27395;-61
2021/03/24 16:37:24;;;;;;;1.17;0.70;;;21.80;35.00;;;;;;5106718;28;27364;-61
2021/03/24 16:40:32;;;;;;;1.00;0.90;;;21.50;35.30;;;;;;5106232;28;27415;-74
2021/03/24 16:43:32;;;;;;;1.70;0.90;;;21.30;35.60;;;;;;5106222;28;27486;-61
2021/03/24 16:46:51;;;;;;;1.15;0.70;;;21.00;35.90;;;;;;5088111;28;27392;-61
2021/03/24 16:50:13;;;;;;;2.35;0.98;;;20.70;36.30;;;;;;5106467;28;27457;-61
2021/03/24 16:53:00;;;;;;;1.85;0.90;;;20.40;36.70;;;;;;5106129;28;27383;-63
2021/03/24 16:55:45;;;;;;;3.40;0.80;;;20.10;37.00;;;;;;5106449;28;27441;-71
2021/03/24 16:58:38;;;;;;;0.90;0.60;;;19.80;37.60;;;;;;5077308;28;27492;-61
2021/03/24 17:01:32;;;;;;;0.90;0.73;;;19.60;37.90;;;;;;5106101;28;27545;-62
2021/03/24 17:04:42;;;;;;;0.80;0.63;;;19.40;38.50;;;;;;5105945;28;27391;-61
2021/03/24 17:08:12;;;;;;;5.78;1.17;;;19.10;38.70;;;;;;5105289;28;27621;-59
2021/03/24 17:11:10;;;;;;;9.60;1.52;;;18.70;37.40;;;;;;5090425;28;27387;-60
2021/03/24 17:14:02;;;;;;;5.20;1.60;;;18.40;36.70;;;;;;5105747;28;27447;-60
2021/03/24 17:16:49;;;;;;;6.18;1.60;;;18.00;38.90;;;;;;5090545;28;27371;-60
2021/03/24 17:19:40;;;;;;;4.75;1.35;;;17.70;40.20;;;;;;5105823;28;27950;-60
2021/03/24 17:22:27;;;;;;;13.73;1.52;;;17.30;41.00;;;;;;5105924;28;27377;-60
2021/03/24 17:25:31;;;;;;;3.55;1.50;;;17.00;43.20;;;;;;5104668;28;27365;-60
2021/03/24 17:28:22;;;;;;;3.35;1.33;;;16.80;43.20;;;;;;5105649;28;27437;-60
2021/03/24 17:31:26;;;;;;;4.72;1.60;;;16.60;43.00;;;;;;5105622;28;27442;-60
2021/03/24 17:34:13;;;;;;;5.63;2.33;;;16.40;43.90;;;;;;5105404;28;27439;-60
2021/03/24 17:37:41;;;;;;;2.75;1.25;;;16.10;44.10;;;;;;5105772;28;27371;-59
2021/03/24 17:41:04;;;;;;;10.20;1.20;;;15.90;45.20;;;;;;5002898;28;27445;-59
2021/03/24 17:43:54;;;;;;;2.83;1.55;;;15.70;45.40;;;;;;5003526;28;27392;-60
2021/03/24 17:46:45;;;;;;;5.28;1.30;;;15.50;46.10;;;;;;5003325;28;27465;-60
2021/03/24 17:49:41;;;;;;;2.10;1.35;;;15.30;46.70;;;;;;5003207;28;27390;-60
2021/03/24 17:52:45;;;;;;;1.50;1.30;;;15.10;46.70;;;;;;4989902;28;27526;-60
2021/03/24 17:55:45;;;;;;;2.28;1.40;;;14.80;47.20;;;;;;4989229;28;27375;-60
2021/03/24 17:58:50;;;;;;;2.20;1.50;;;14.60;47.70;;;;;;5003074;28;27453;-61
2021/03/24 18:02:01;;;;;;;2.78;1.05;;;14.50;48.20;;;;;;5002836;28;27533;-61
2021/03/24 18:04:57;;;;;;;4.72;1.50;;;14.30;48.70;;;;;;4978412;28;27600;-60
2021/03/24 18:07:43;;;;;;;2.10;1.33;;;14.10;49.10;;;;;;5002720;28;27390;-59
2021/03/24 18:10:34;;;;;;;2.63;1.45;;;13.90;49.60;;;;;;5002755;28;27405;-62
2021/03/24 18:13:26;;;;;;;4.70;1.38;;;13.80;50.60;;;;;;5025146;28;27359;-60
2021/03/24 18:16:25;;;;;;;2.55;1.30;;;13.60;50.20;;;;;;5089942;28;27478;-59
2021/03/24 18:19:13;;;;;;;1.33;0.98;;;13.40;50.40;;;;;;5077420;28;27399;-60
2021/03/24 18:21:58;;;;;;;5.57;1.80;;;13.30;51.20;;;;;;5104850;28;27388;-59
2021/03/24 18:24:42;;;;;;;4.22;1.45;;;13.10;51.00;;;;;;5105131;28;27332;-59
2021/03/24 18:27:27;;;;;;;3.60;1.65;;;13.00;51.30;;;;;;5105087;28;27322;-60
2021/03/24 18:30:20;;;;;;;1.88;1.20;;;12.80;51.70;;;;;;5088567;28;27394;-59
2021/03/24 18:33:28;;;;;;;2.33;1.45;;;12.70;51.80;;;;;;5104673;28;27360;-60
2021/03/24 18:36:14;;;;;;;3.15;1.33;;;12.50;52.10;;;;;;5104700;28;27402;-60
2021/03/24 18:39:05;;;;;;;5.68;2.85;;;12.40;52.30;;;;;;5101185;28;27481;-61
2021/03/24 18:41:49;;;;;;;6.32;3.85;;;12.20;52.60;;;;;;5088592;28;27865;-60
2021/03/24 18:44:38;;;;;;;8.00;5.07;;;12.10;53.00;;;;;;5075355;28;27393;-60
2021/03/24 18:47:37;;;;;;;7.72;4.90;;;12.00;52.90;;;;;;5089676;28;27372;-60
2021/03/24 18:50:33;;;;;;;8.82;4.82;;;11.80;53.20;;;;;;5089438;28;27486;-60
2021/03/24 18:53:35;;;;;;;9.43;5.35;;;11.70;53.70;;;;;;5104518;28;27450;-60
2021/03/24 18:56:25;;;;;;;8.75;5.90;;;11.60;54.20;;;;;;5104122;28;27485;-61
2021/03/24 18:59:33;;;;;;;7.47;5.40;;;11.50;54.40;;;;;;5086026;28;27368;-61
2021/03/24 19:02:28;;;;;;;8.05;4.78;;;11.40;54.60;;;;;;5104220;28;27395;-59
2021/03/24 19:05:31;;;;;;;8.50;5.60;;;11.20;54.80;;;;;;5104459;28;27850;-59
2021/03/24 19:08:21;;;;;;;8.85;6.03;;;11.10;54.80;;;;;;5104188;28;27315;-59
2021/03/24 19:11:40;;;;;;;12.48;5.85;;;11.00;54.90;;;;;;5085914;28;26974;-60
2021/03/24 19:14:34;;;;;;;9.25;6.50;;;10.90;55.00;;;;;;5104216;28;27391;-59
2021/03/24 19:17:44;;;;;;;10.75;6.80;;;10.80;55.50;;;;;;5104493;28;27374;-60
2021/03/24 19:20:31;;;;;;;9.52;5.68;;;10.70;55.40;;;;;;5104100;28;27438;-60
2021/03/24 19:23:20;;;;;;;9.63;6.15;;;10.60;55.50;;;;;;5085424;28;27399;-60
2021/03/24 19:26:17;;;;;;;12.13;7.32;;;10.50;55.80;;;;;;5103723;28;27321;-60
2021/03/24 19:29:12;;;;;;;12.25;7.53;;;10.40;55.80;;;;;;5088792;28;27936;-59
2021/03/24 19:32:13;;;;;;;11.90;7.03;;;10.30;55.90;;;;;;5085291;28;27442;-59
2021/03/24 19:35:27;;;;;;;11.32;7.35;;;10.20;55.90;;;;;;5104250;28;27493;-60
2021/03/24 19:38:20;;;;;;;13.07;8.80;;;10.10;56.40;;;;;;5089810;28;27613;-60
2021/03/24 19:41:08;;;;;;;12.45;7.82;;;10.10;56.70;;;;;;5103225;28;27443;-59
2021/03/24 19:44:00;;;;;;;15.25;8.68;;;9.90;56.50;;;;;;5103570;28;27431;-60
2021/03/24 19:47:27;;;;;;;16.48;9.32;;;9.90;56.50;;;;;;5103642;27;27360;-59
2021/03/24 19:50:32;;;;;;;14.27;8.95;;;9.80;56.90;;;;;;5092214;28;27014;-59
2021/03/24 19:53:18;;;;;;;13.00;8.20;;;9.70;56.80;;;;;;5106448;28;27918;-59
2021/03/24 19:56:04;;;;;;;12.80;8.43;;;9.60;57.10;;;;;;5106826;28;27436;-59
2021/03/24 19:58:52;;;;;;;14.65;9.05;;;9.60;57.20;;;;;;5107249;28;27415;-59
2021/03/24 20:01:38;;;;;;;15.77;9.20;;;9.50;57.30;;;;;;5092468;28;27387;-59
2021/03/24 20:04:58;;;;;;;15.10;9.43;;;9.40;57.40;;;;;;5106999;28;27845;-59
2021/03/24 20:07:47;;;;;;;12.90;8.25;;;9.40;57.50;;;;;;5103887;28;27513;-59
2021/03/24 20:10:43;;;;;;;17.02;8.85;;;9.30;57.60;;;;;;5106657;28;27394;-59
2021/03/24 20:13:34;;;;;;;13.23;8.43;;;9.20;57.80;;;;;;5106883;28;27375;-59
2021/03/24 20:16:23;;;;;;;12.35;8.43;;;9.10;57.80;;;;;;5088372;28;27387;-59
2021/03/24 20:19:09;;;;;;;11.75;7.47;;;9.10;58.00;;;;;;5106895;28;27383;-59
2021/03/24 20:21:54;;;;;;;13.52;8.40;;;9.00;58.20;;;;;;5103536;28;27435;-59
2021/03/24 20:24:39;;;;;;;12.18;7.13;;;8.90;58.20;;;;;;5106623;28;27486;-59
2021/03/24 20:27:25;;;;;;;14.07;7.65;;;8.90;58.20;;;;;;5106507;28;27472;-59
2021/03/24 20:30:11;;;;;;;11.90;7.80;;;8.80;58.30;;;;;;5106378;28;27474;-59
2021/03/24 20:33:26;;;;;;;12.75;7.60;;;8.80;58.80;;;;;;5106491;28;27419;-59
2021/03/24 20:36:32;;;;;;;14.48;7.45;;;8.70;58.80;;;;;;5106323;28;27449;-59
2021/03/24 20:39:27;;;;;;;11.77;7.22;;;8.60;59.00;;;;;;5106255;28;27864;-59
2021/03/24 20:42:17;;;;;;;11.98;7.15;;;8.50;59.00;;;;;;5084509;28;27477;-59
2021/03/24 20:45:08;;;;;;;13.18;7.95;;;8.50;59.10;;;;;;5086098;28;27369;-59
2021/03/24 20:47:53;;;;;;;13.48;7.35;;;8.40;59.10;;;;;;5085331;28;27486;-59
2021/03/24 20:50:43;;;;;;;12.55;7.53;;;8.30;59.20;;;;;;5085028;28;27960;-59
2021/03/24 20:53:28;;;;;;;16.25;8.30;;;8.30;59.50;;;;;;5085898;28;27377;-59
2021/03/24 20:56:14;;;;;;;14.98;8.10;;;8.20;59.50;;;;;;5085950;28;27368;-59
2021/03/24 20:58:59;;;;;;;11.10;7.15;;;8.20;59.60;;;;;;5085882;28;27457;-59
2021/03/24 21:01:44;;;;;;;15.82;7.28;;;8.10;59.80;;;;;;5085071;28;27869;-60
2021/03/24 21:04:29;;;;;;;16.27;7.93;;;8.00;59.80;;;;;;5085573;28;27480;-60
2021/03/24 21:07:14;;;;;;;13.45;7.57;;;8.00;60.10;;;;;;5084659;28;26926;-60
2021/03/24 21:09:58;;;;;;;15.60;7.57;;;7.90;60.00;;;;;;5085666;28;27416;-60
2021/03/24 21:12:43;;;;;;;12.27;8.00;;;7.80;60.00;;;;;;5085593;28;27332;-60
2021/03/24 21:15:27;;;;;;;10.95;7.03;;;7.80;60.30;;;;;;5084618;28;27678;-60
2021/03/24 21:18:32;;;;;;;11.68;6.90;;;7.80;60.40;;;;;;5082030;28;27350;-59
2021/03/24 21:21:23;;;;;;;14.15;7.50;;;7.70;60.40;;;;;;5085047;28;27422;-59
2021/03/24 21:24:08;;;;;;;13.75;7.45;;;7.60;60.60;;;;;;5085448;28;27845;-59
2021/03/24 21:26:53;;;;;;;14.35;7.75;;;7.60;60.70;;;;;;5085312;28;27469;-60
2021/03/24 21:29:37;;;;;;;14.45;7.40;;;7.50;60.60;;;;;;5085207;28;27489;-60
2021/03/24 21:32:22;;;;;;;10.48;7.00;;;7.50;60.70;;;;;;5084661;28;27477;-59
2021/03/24 21:35:06;;;;;;;17.15;7.32;;;7.40;60.70;;;;;;5084997;28;27597;-59
2021/03/24 21:37:52;;;;;;;11.90;7.03;;;7.40;60.90;;;;;;5085318;28;27476;-60
2021/03/24 21:40:40;;;;;;;15.07;6.63;;;7.40;60.90;;;;;;5086693;28;27419;-59
2021/03/24 21:43:24;;;;;;;10.57;6.75;;;7.30;61.10;;;;;;5105040;28;26973;-59
2021/03/24 21:46:12;;;;;;;13.68;7.20;;;7.20;61.40;;;;;;5105188;28;27357;-59
2021/03/24 21:48:57;;;;;;;14.15;6.97;;;7.20;61.50;;;;;;5105169;28;27388;-59
2021/03/24 21:51:41;;;;;;;15.00;7.07;;;7.20;61.50;;;;;;5105216;28;27400;-59
2021/03/24 21:54:26;;;;;;;9.57;6.20;;;7.10;61.40;;;;;;5105461;28;27394;-60
2021/03/24 21:57:38;;;;;;;11.63;7.38;;;7.00;61.40;;;;;;5105194;28;27834;-59
2021/03/24 22:00:24;;;;;;;11.70;7.00;;;7.00;61.50;;;;;;5089658;28;27517;-59